Time;durP1;ratioP1;P1;durP2;ratioP2;P2;SDS_P1;SDS_P2;PMS_P1;PMS_P2;Temp;Humidity;BMP_temperature;BMP_pressure;BME280_temperature;BME280_humidity;BME280_pressure;Samples;Min_cycle;Max_cycle;Signal;HPM_P1;HPM_P2
2023/06/29 00:00:09;;;;;;;;;;;24.10;50.10;;;;;;5038591;28;19920;-62
2023/06/29 00:02:36;;;;;;;;;;;24.10;50.10;;;;;;5038630;28;19921;-62
2023/06/29 00:05:02;;;;;;;;;;;24.10;50.10;;;;;;5038576;28;19921;-62
2023/06/29 00:07:33;;;;;;;;;;;24.10;50.10;;;;;;5056624;28;20019;-62
2023/06/29 00:10:00;;;;;;;;;;;24.10;50.10;;;;;;5038390;28;19967;-62
2023/06/29 00:12:28;;;;;;;;;;;24.10;50.20;;;;;;5038206;28;19971;-62
2023/06/29 00:14:54;;;;;;;;;;;24.10;50.20;;;;;;5038854;28;19921;-62
2023/06/29 00:17:21;;;;;;;;;;;24.10;50.20;;;;;;5038222;28;20425;-62
2023/06/29 00:19:48;;;;;;;;;;;24.10;50.20;;;;;;5056751;28;19921;-62
2023/06/29 00:22:15;;;;;;;;;;;24.10;50.20;;;;;;5034258;28;19929;-62
2023/06/29 00:24:43;;;;;;;;;;;24.10;50.20;;;;;;5036194;28;19921;-62
2023/06/29 00:27:10;;;;;;;;;;;24.10;50.20;;;;;;5051695;28;19925;-62
2023/06/29 00:29:39;;;;;;;;;;;24.10;50.20;;;;;;5038020;28;19921;-62
2023/06/29 00:32:07;;;;;;;;;;;24.00;50.10;;;;;;5038842;28;19924;-62
2023/06/29 00:34:33;;;;;;;;;;;24.10;50.20;;;;;;5036138;28;19968;-62
2023/06/29 00:37:00;;;;;;;;;;;24.10;50.20;;;;;;5038564;28;19925;-62
2023/06/29 00:39:27;;;;;;;;;;;24.10;50.20;;;;;;5054650;28;19925;-61
2023/06/29 00:41:54;;;;;;;;;;;24.10;50.20;;;;;;5055841;28;19920;-63
2023/06/29 00:44:21;;;;;;;;;;;24.10;50.20;;;;;;5054241;28;20267;-63
2023/06/29 00:46:49;;;;;;;;;;;24.10;50.20;;;;;;5037988;28;19943;-63
2023/06/29 00:49:16;;;;;;;;;;;24.10;50.20;;;;;;5054355;28;19924;-62
2023/06/29 00:51:42;;;;;;;;;;;24.10;50.20;;;;;;5053116;28;19924;-63
2023/06/29 00:54:09;;;;;;;;;;;24.10;50.30;;;;;;5055206;28;19921;-62
2023/06/29 00:56:36;;;;;;;;;;;24.10;50.30;;;;;;5038580;28;19925;-63
2023/06/29 00:59:02;;;;;;;;;;;24.10;50.30;;;;;;5038210;28;19921;-63
2023/06/29 01:01:29;;;;;;;;;;;24.10;50.30;;;;;;5055491;28;19921;-63
2023/06/29 01:03:57;;;;;;;;;;;24.10;50.30;;;;;;5037525;28;19933;-63
2023/06/29 01:06:29;;;;;;;;;;;24.10;50.30;;;;;;5038539;28;20026;-63
2023/06/29 01:08:57;;;;;;;;;;;24.10;50.30;;;;;;5037422;28;19928;-63
2023/06/29 01:11:23;;;;;;;;;;;24.10;50.30;;;;;;5037394;28;19928;-63
2023/06/29 01:13:50;;;;;;;;;;;24.10;50.30;;;;;;5037849;28;19928;-61
2023/06/29 01:16:17;;;;;;;;;;;24.10;50.30;;;;;;5037088;28;19920;-62
2023/06/29 01:18:44;;;;;;;;;;;24.10;50.40;;;;;;5037631;28;19935;-62
2023/06/29 01:21:12;;;;;;;;;;;24.10;50.30;;;;;;5035669;28;19924;-62
2023/06/29 01:23:39;;;;;;;;;;;24.10;50.30;;;;;;5036769;28;19921;-62
2023/06/29 01:26:07;;;;;;;;;;;24.10;50.30;;;;;;5037226;28;19951;-62
2023/06/29 01:28:38;;;;;;;;;;;24.10;50.40;;;;;;5054732;28;19921;-61
2023/06/29 01:31:05;;;;;;;;;;;24.10;50.40;;;;;;5036789;28;19920;-62
2023/06/29 01:33:31;;;;;;;;;;;24.10;50.40;;;;;;5036921;28;20377;-62
2023/06/29 01:36:01;;;;;;;;;;;24.10;50.40;;;;;;5037342;28;19921;-62
2023/06/29 01:38:29;;;;;;;;;;;24.10;50.40;;;;;;5036827;28;20015;-62
2023/06/29 01:40:56;;;;;;;;;;;24.10;50.40;;;;;;5036738;28;19982;-61
2023/06/29 01:43:24;;;;;;;;;;;24.10;50.40;;;;;;5036698;28;19924;-62
2023/06/29 01:45:51;;;;;;;;;;;24.10;50.40;;;;;;5036661;28;19981;-62
2023/06/29 01:48:18;;;;;;;;;;;24.10;50.40;;;;;;5037082;28;19920;-62
2023/06/29 01:50:45;;;;;;;;;;;24.10;50.40;;;;;;5036387;28;19943;-62
2023/06/29 01:53:11;;;;;;;;;;;24.10;50.40;;;;;;5036340;28;19924;-62
2023/06/29 01:55:38;;;;;;;;;;;24.10;50.40;;;;;;5037025;28;19936;-62
2023/06/29 01:58:05;;;;;;;;;;;24.10;50.50;;;;;;5036711;28;19964;-61
2023/06/29 02:00:33;;;;;;;;;;;24.10;50.40;;;;;;5036614;28;19982;-61
2023/06/29 02:03:00;;;;;;;;;;;24.10;50.50;;;;;;5036902;28;19974;-62
2023/06/29 02:05:27;;;;;;;;;;;24.10;50.50;;;;;;5022050;28;19947;-62
2023/06/29 02:07:53;;;;;;;;;;;24.10;50.50;;;;;;5017083;28;20273;-62
2023/06/29 02:10:20;;;;;;;;;;;24.10;50.50;;;;;;5034287;28;20315;-62
2023/06/29 02:12:47;;;;;;;;;;;24.10;50.50;;;;;;5049490;28;19921;-61
2023/06/29 02:15:14;;;;;;;;;;;24.10;50.50;;;;;;5049177;28;19921;-62
2023/06/29 02:17:42;;;;;;;;;;;24.10;50.50;;;;;;5050121;28;19924;-62
2023/06/29 02:20:10;;;;;;;;;;;24.10;50.50;;;;;;5049499;28;19944;-62
2023/06/29 02:22:36;;;;;;;;;;;24.10;50.60;;;;;;5049282;28;19943;-62
2023/06/29 02:25:04;;;;;;;;;;;24.10;51.20;;;;;;5032828;28;19925;-62
2023/06/29 02:27:31;;;;;;;;;;;24.10;50.50;;;;;;5016416;28;19921;-62
2023/06/29 02:29:57;;;;;;;;;;;24.10;50.60;;;;;;5040172;28;19967;-62
2023/06/29 02:32:24;;;;;;;;;;;24.10;50.60;;;;;;5033163;28;20390;-62
2023/06/29 02:34:52;;;;;;;;;;;24.10;50.60;;;;;;5033925;28;19970;-62
2023/06/29 02:37:19;;;;;;;;;;;24.10;50.60;;;;;;5036988;28;19921;-62
2023/06/29 02:39:45;;;;;;;;;;;24.10;50.60;;;;;;5036793;28;19928;-62
2023/06/29 02:42:12;;;;;;;;;;;24.10;50.60;;;;;;5035776;28;20410;-62
2023/06/29 02:44:39;;;;;;;;;;;24.10;50.60;;;;;;5053979;28;20310;-62
2023/06/29 02:47:06;;;;;;;;;;;24.10;50.60;;;;;;5036000;28;20370;-62
2023/06/29 02:49:33;;;;;;;;;;;24.10;50.60;;;;;;5034282;28;20375;-62
2023/06/29 02:52:01;;;;;;;;;;;24.10;50.60;;;;;;5057473;28;19920;-62
2023/06/29 02:54:28;;;;;;;;;;;24.10;50.60;;;;;;5055526;28;20050;-62
2023/06/29 02:56:54;;;;;;;;;;;24.10;50.60;;;;;;5035826;28;19928;-61
2023/06/29 02:59:21;;;;;;;;;;;24.10;50.60;;;;;;5037751;28;19920;-61
2023/06/29 03:01:48;;;;;;;;;;;24.10;50.60;;;;;;5037714;28;19921;-61
2023/06/29 03:04:15;;;;;;;;;;;24.10;50.70;;;;;;5039249;28;19935;-62
2023/06/29 03:06:41;;;;;;;;;;;24.10;50.70;;;;;;5057976;28;19927;-62
2023/06/29 03:09:09;;;;;;;;;;;24.10;50.70;;;;;;5039885;28;20248;-62
2023/06/29 03:11:36;;;;;;;;;;;24.10;50.70;;;;;;5040611;28;19921;-62
2023/06/29 03:14:03;;;;;;;;;;;24.10;50.70;;;;;;5038303;28;19925;-61
2023/06/29 03:16:29;;;;;;;;;;;24.10;50.70;;;;;;5040499;28;19925;-62
2023/06/29 03:18:56;;;;;;;;;;;24.10;50.70;;;;;;5056089;28;20358;-62
2023/06/29 03:21:23;;;;;;;;;;;24.10;50.70;;;;;;5057222;28;19932;-62
2023/06/29 03:23:50;;;;;;;;;;;24.10;50.70;;;;;;5039447;28;19944;-61
2023/06/29 03:26:18;;;;;;;;;;;24.10;50.70;;;;;;5039139;28;19921;-62
2023/06/29 03:28:44;;;;;;;;;;;24.10;50.70;;;;;;5033716;28;19921;-62
2023/06/29 03:31:11;;;;;;;;;;;24.10;50.70;;;;;;5020528;28;20378;-62
2023/06/29 03:33:38;;;;;;;;;;;24.10;50.70;;;;;;5019492;28;19944;-62
2023/06/29 03:36:09;;;;;;;;;;;24.10;50.70;;;;;;5045392;28;19983;-61
2023/06/29 03:38:36;;;;;;;;;;;24.10;50.80;;;;;;5058088;28;19927;-62
2023/06/29 03:41:02;;;;;;;;;;;24.10;50.80;;;;;;5040338;28;19924;-61
2023/06/29 03:43:31;;;;;;;;;;;24.10;50.80;;;;;;5037910;28;19921;-61
2023/06/29 03:45:58;;;;;;;;;;;24.10;50.80;;;;;;5039494;28;19921;-61
2023/06/29 03:48:27;;;;;;;;;;;24.10;50.80;;;;;;5040230;28;19921;-61
2023/06/29 03:50:54;;;;;;;;;;;24.10;50.80;;;;;;5039171;28;19925;-61
2023/06/29 03:53:20;;;;;;;;;;;24.10;50.80;;;;;;5037048;28;19925;-62
2023/06/29 03:55:48;;;;;;;;;;;24.10;50.80;;;;;;5039621;28;19921;-62
2023/06/29 03:58:15;;;;;;;;;;;24.10;50.80;;;;;;5038800;28;19928;-62
2023/06/29 04:00:44;;;;;;;;;;;24.10;50.90;;;;;;5039043;28;19921;-62
2023/06/29 04:03:11;;;;;;;;;;;24.10;50.90;;;;;;5038264;28;19921;-62
2023/06/29 04:05:37;;;;;;;;;;;24.10;50.90;;;;;;5039511;28;19921;-62
2023/06/29 04:08:05;;;;;;;;;;;24.10;50.80;;;;;;5038341;28;19943;-62
2023/06/29 04:10:31;;;;;;;;;;;24.10;50.90;;;;;;5021317;28;19921;-62
2023/06/29 04:12:58;;;;;;;;;;;24.10;50.90;;;;;;5051125;28;19927;-62
2023/06/29 04:15:25;;;;;;;;;;;24.10;50.90;;;;;;5056418;28;19921;-62
2023/06/29 04:17:54;;;;;;;;;;;24.10;50.90;;;;;;5037699;28;20325;-56
2023/06/29 04:20:20;;;;;;;;;;;24.10;51.00;;;;;;5030067;28;19921;-62
2023/06/29 04:22:47;;;;;;;;;;;24.10;50.90;;;;;;5054384;28;20012;-62
2023/06/29 04:25:14;;;;;;;;;;;24.10;50.90;;;;;;5036707;28;19924;-62
2023/06/29 04:27:42;;;;;;;;;;;24.10;50.90;;;;;;5038354;28;20310;-62
2023/06/29 04:30:09;;;;;;;;;;;24.10;50.90;;;;;;5036336;28;19974;-63
2023/06/29 04:32:36;;;;;;;;;;;24.10;51.00;;;;;;5038067;28;20115;-62
2023/06/29 04:35:04;;;;;;;;;;;24.10;51.00;;;;;;5035969;28;19928;-62
2023/06/29 04:37:40;;;;;;;;;;;24.10;51.00;;;;;;5038068;28;19943;-62
2023/06/29 04:40:09;;;;;;;;;;;24.10;50.90;;;;;;5038574;28;19958;-62
2023/06/29 04:42:43;;;;;;;;;;;24.10;51.00;;;;;;5037977;28;19959;-62
2023/06/29 04:45:12;;;;;;;;;;;24.10;51.00;;;;;;5038088;28;19992;-62
2023/06/29 04:47:40;;;;;;;;;;;24.10;51.00;;;;;;5035972;28;19971;-61
2023/06/29 04:50:09;;;;;;;;;;;24.10;51.10;;;;;;5037724;28;19921;-62
2023/06/29 04:52:37;;;;;;;;;;;24.10;51.10;;;;;;5034071;28;19924;-61
2023/06/29 04:55:04;;;;;;;;;;;24.10;51.10;;;;;;5036397;28;20016;-62
2023/06/29 04:57:31;;;;;;;;;;;24.10;51.10;;;;;;5037580;28;19952;-63
2023/06/29 04:59:58;;;;;;;;;;;24.10;51.10;;;;;;5055017;28;20016;-62
2023/06/29 05:02:25;;;;;;;;;;;24.10;51.10;;;;;;5037885;28;19928;-62
2023/06/29 05:04:52;;;;;;;;;;;24.10;51.10;;;;;;5037534;28;19939;-62
2023/06/29 05:07:20;;;;;;;;;;;24.10;51.10;;;;;;5038427;28;19966;-62
2023/06/29 05:09:47;;;;;;;;;;;24.10;51.10;;;;;;5037366;28;19920;-62
2023/06/29 05:12:14;;;;;;;;;;;24.10;51.10;;;;;;5062212;28;19924;-62
2023/06/29 05:14:41;;;;;;;;;;;24.10;51.20;;;;;;5052976;28;19920;-63
2023/06/29 05:17:08;;;;;;;;;;;24.10;51.10;;;;;;5072840;28;19966;-62
2023/06/29 05:19:36;;;;;;;;;;;24.10;51.20;;;;;;5056919;28;19925;-63
2023/06/29 05:22:02;;;;;;;;;;;24.10;51.20;;;;;;5058055;28;20339;-62
2023/06/29 05:24:31;;;;;;;;;;;24.10;51.20;;;;;;5036587;28;20283;-62
2023/06/29 05:26:57;;;;;;;;;;;24.10;51.20;;;;;;5035114;28;19972;-62
2023/06/29 05:29:25;;;;;;;;;;;24.10;51.30;;;;;;5035494;28;19925;-62
2023/06/29 05:31:51;;;;;;;;;;;24.10;51.20;;;;;;5034405;28;20256;-62
2023/06/29 05:34:18;;;;;;;;;;;24.10;51.20;;;;;;5035300;28;19970;-62
2023/06/29 05:36:45;;;;;;;;;;;24.10;51.20;;;;;;5054487;28;19952;-62
2023/06/29 05:39:11;;;;;;;;;;;24.10;51.20;;;;;;5034632;28;19920;-62
2023/06/29 05:41:40;;;;;;;;;;;24.10;51.20;;;;;;5036835;28;19925;-63
2023/06/29 05:44:07;;;;;;;;;;;24.10;51.30;;;;;;5035375;28;19964;-62
2023/06/29 05:46:34;;;;;;;;;;;24.10;51.30;;;;;;5054846;28;19921;-63
2023/06/29 05:49:01;;;;;;;;;;;24.10;51.30;;;;;;5054597;28;19924;-62
2023/06/29 05:51:28;;;;;;;;;;;24.10;51.40;;;;;;5034528;28;19927;-63
2023/06/29 05:53:54;;;;;;;;;;;24.10;51.40;;;;;;5052309;28;20034;-63
2023/06/29 05:56:21;;;;;;;;;;;24.10;51.40;;;;;;5036398;28;19921;-63
2023/06/29 05:58:49;;;;;;;;;;;24.10;51.40;;;;;;5036592;28;20355;-63
2023/06/29 06:01:17;;;;;;;;;;;24.10;51.40;;;;;;5036639;28;19921;-63
2023/06/29 06:03:44;;;;;;;;;;;24.10;51.40;;;;;;5035265;28;19943;-62
2023/06/29 06:06:10;;;;;;;;;;;24.10;51.40;;;;;;5033853;28;19928;-62
2023/06/29 06:08:37;;;;;;;;;;;24.10;51.50;;;;;;5034619;28;19921;-62
2023/06/29 06:11:04;;;;;;;;;;;24.10;51.50;;;;;;5054305;28;19983;-62
2023/06/29 06:13:31;;;;;;;;;;;24.10;51.50;;;;;;5036576;28;20290;-62
2023/06/29 06:15:59;;;;;;;;;;;24.10;51.50;;;;;;5035367;28;20335;-62
2023/06/29 06:18:26;;;;;;;;;;;24.10;51.50;;;;;;5035025;28;19924;-63
2023/06/29 06:20:53;;;;;;;;;;;24.10;51.50;;;;;;5033466;28;20016;-62
2023/06/29 06:23:21;;;;;;;;;;;24.10;51.50;;;;;;5036480;28;19921;-63
2023/06/29 06:25:47;;;;;;;;;;;24.10;51.60;;;;;;5050204;28;19921;-62
2023/06/29 06:28:14;;;;;;;;;;;24.10;51.60;;;;;;5034475;28;19921;-62
2023/06/29 06:30:41;;;;;;;;;;;24.10;51.50;;;;;;5033269;28;19921;-62
2023/06/29 06:33:09;;;;;;;;;;;24.10;51.50;;;;;;5034282;28;19921;-62
2023/06/29 06:35:36;;;;;;;;;;;24.10;51.60;;;;;;5037074;28;19925;-62
2023/06/29 06:38:03;;;;;;;;;;;24.10;51.50;;;;;;5036659;28;19921;-62
2023/06/29 06:40:30;;;;;;;;;;;24.10;51.50;;;;;;5052768;28;20007;-63
2023/06/29 06:42:57;;;;;;;;;;;24.10;51.50;;;;;;5036377;28;19920;-62
2023/06/29 06:45:24;;;;;;;;;;;24.10;51.60;;;;;;5036821;28;19924;-62
2023/06/29 06:47:50;;;;;;;;;;;24.10;51.60;;;;;;5033778;28;19939;-62
2023/06/29 06:50:20;;;;;;;;;;;24.10;51.60;;;;;;5030652;28;20363;-62
2023/06/29 06:52:47;;;;;;;;;;;24.10;51.60;;;;;;5016990;28;19927;-62
2023/06/29 06:55:14;;;;;;;;;;;24.10;51.60;;;;;;5050469;28;19924;-62
2023/06/29 06:57:40;;;;;;;;;;;24.10;51.60;;;;;;5039902;28;19921;-62
2023/06/29 07:00:10;;;;;;;;;;;24.10;51.60;;;;;;5033019;28;20015;-62
2023/06/29 07:02:37;;;;;;;;;;;24.10;51.60;;;;;;5051689;28;19960;-62
2023/06/29 07:05:05;;;;;;;;;;;24.10;51.50;;;;;;5034507;28;19974;-62
2023/06/29 07:07:33;;;;;;;;;;;24.10;51.50;;;;;;5035981;28;19920;-62
2023/06/29 07:10:00;;;;;;;;;;;24.10;51.50;;;;;;5033803;28;19921;-63
2023/06/29 07:12:27;;;;;;;;;;;24.10;51.50;;;;;;5040168;28;19920;-62
2023/06/29 07:14:53;;;;;;;;;;;24.10;51.40;;;;;;5055155;28;19924;-62
2023/06/29 07:17:20;;;;;;;;;;;24.20;51.50;;;;;;5057864;28;19928;-62
2023/06/29 07:19:47;;;;;;;;;;;24.10;51.40;;;;;;5032257;28;19921;-62
2023/06/29 07:22:14;;;;;;;;;;;24.20;51.40;;;;;;5034196;28;19974;-63
2023/06/29 07:24:43;;;;;;;;;;;24.20;51.40;;;;;;5034968;28;19986;-63
2023/06/29 07:27:09;;;;;;;;;;;24.20;51.40;;;;;;5053325;28;19967;-63
2023/06/29 07:29:36;;;;;;;;;;;24.10;51.30;;;;;;5033809;28;19924;-63
2023/06/29 07:32:03;;;;;;;;;;;24.10;51.30;;;;;;5051349;28;20026;-63
2023/06/29 07:34:30;;;;;;;;;;;24.10;51.40;;;;;;5053302;28;20271;-63
2023/06/29 07:36:57;;;;;;;;;;;24.10;51.30;;;;;;5036752;28;19948;-63
2023/06/29 07:39:23;;;;;;;;;;;24.20;51.30;;;;;;5054759;28;19925;-62
2023/06/29 07:41:52;;;;;;;;;;;24.10;51.30;;;;;;5039646;28;20340;-63
2023/06/29 07:44:19;;;;;;;;;;;24.20;51.30;;;;;;5037415;28;19921;-63
2023/06/29 07:46:46;;;;;;;;;;;24.20;51.30;;;;;;5037138;28;19969;-63
2023/06/29 07:49:12;;;;;;;;;;;24.20;51.30;;;;;;5054903;28;19943;-63
2023/06/29 07:51:39;;;;;;;;;;;24.10;51.30;;;;;;5037394;28;19982;-63
2023/06/29 07:54:08;;;;;;;;;;;24.10;51.20;;;;;;5039632;28;19924;-63
2023/06/29 07:56:34;;;;;;;;;;;24.20;51.30;;;;;;5038814;28;20031;-63
2023/06/29 07:59:03;;;;;;;;;;;24.10;51.20;;;;;;5037288;28;19920;-63
2023/06/29 08:01:29;;;;;;;;;;;24.20;51.30;;;;;;5038754;28;19921;-63
2023/06/29 08:03:56;;;;;;;;;;;24.20;51.90;;;;;;5055210;28;19932;-61
2023/06/29 08:06:23;;;;;;;;;;;24.20;51.30;;;;;;5036966;28;19921;-61
2023/06/29 08:08:50;;;;;;;;;;;24.20;51.30;;;;;;5038551;28;20274;-61
2023/06/29 08:11:17;;;;;;;;;;;24.20;51.30;;;;;;5038327;28;19925;-61
2023/06/29 08:13:43;;;;;;;;;;;24.20;51.30;;;;;;5039126;28;19921;-61
2023/06/29 08:16:12;;;;;;;;;;;24.20;51.30;;;;;;5057274;28;19920;-61
2023/06/29 08:18:39;;;;;;;;;;;24.20;51.30;;;;;;5038121;28;19928;-61
2023/06/29 08:21:06;;;;;;;;;;;24.20;51.30;;;;;;5038567;28;20393;-61
2023/06/29 08:23:33;;;;;;;;;;;24.20;51.30;;;;;;5055922;28;19974;-61
2023/06/29 08:26:00;;;;;;;;;;;24.20;51.40;;;;;;5038365;28;19935;-61
2023/06/29 08:28:27;;;;;;;;;;;24.20;51.30;;;;;;5037943;28;19925;-61
2023/06/29 08:30:53;;;;;;;;;;;24.20;51.40;;;;;;5038083;28;19921;-62
2023/06/29 08:33:23;;;;;;;;;;;24.20;51.40;;;;;;5055842;28;19921;-62
2023/06/29 08:35:50;;;;;;;;;;;24.20;51.40;;;;;;5039055;28;19936;-62
2023/06/29 08:38:17;;;;;;;;;;;24.20;51.40;;;;;;5038546;28;19921;-62
2023/06/29 08:40:45;;;;;;;;;;;24.20;51.40;;;;;;5036370;28;19966;-62
2023/06/29 08:43:12;;;;;;;;;;;24.20;51.50;;;;;;5036485;28;19925;-62
2023/06/29 08:45:39;;;;;;;;;;;24.20;51.40;;;;;;5036125;28;19920;-62
2023/06/29 08:48:06;;;;;;;;;;;24.20;51.50;;;;;;5037066;28;19932;-62
2023/06/29 08:50:34;;;;;;;;;;;24.20;51.50;;;;;;5038703;28;19921;-62
2023/06/29 08:53:01;;;;;;;;;;;24.20;51.50;;;;;;5037878;28;19927;-62
2023/06/29 08:55:28;;;;;;;;;;;24.20;51.50;;;;;;5037318;28;19922;-62
2023/06/29 08:57:55;;;;;;;;;;;24.20;51.60;;;;;;5055496;28;19982;-62
2023/06/29 09:00:22;;;;;;;;;;;24.20;51.60;;;;;;5055610;28;19962;-62
2023/06/29 09:02:49;;;;;;;;;;;24.20;51.60;;;;;;5037347;28;19921;-62
2023/06/29 09:05:16;;;;;;;;;;;24.20;51.60;;;;;;5037217;28;20020;-62
2023/06/29 09:07:44;;;;;;;;;;;24.20;51.60;;;;;;5037524;28;19921;-62
2023/06/29 09:10:11;;;;;;;;;;;24.20;51.60;;;;;;5037504;28;19928;-62
2023/06/29 09:12:38;;;;;;;;;;;24.30;51.70;;;;;;5037430;28;19921;-62
2023/06/29 09:15:07;;;;;;;;;;;24.20;51.70;;;;;;5037568;28;19921;-61
2023/06/29 09:17:34;;;;;;;;;;;24.30;51.80;;;;;;5037869;28;20343;-62
2023/06/29 09:20:13;;;;;;;;;;;24.30;51.80;;;;;;5053231;28;19928;-61
2023/06/29 09:22:40;;;;;;;;;;;24.20;51.70;;;;;;5037244;28;19925;-61
2023/06/29 09:25:09;;;;;;;;;;;24.20;51.70;;;;;;5037333;28;19924;-61
2023/06/29 09:27:36;;;;;;;;;;;24.20;51.70;;;;;;5054998;28;19920;-62
2023/06/29 09:30:03;;;;;;;;;;;24.30;51.90;;;;;;5035635;28;19921;-62
2023/06/29 09:32:30;;;;;;;;;;;24.20;51.70;;;;;;5055010;28;19974;-61
2023/06/29 09:34:57;;;;;;;;;;;24.30;51.90;;;;;;5052797;28;19931;-62
2023/06/29 09:37:24;;;;;;;;;;;24.30;51.80;;;;;;5052515;28;19925;-63
2023/06/29 09:39:56;;;;;;;;;;;24.20;51.80;;;;;;5035932;28;20402;-63
2023/06/29 09:42:25;;;;;;;;;;;24.30;51.90;;;;;;5037217;28;19967;-62
2023/06/29 09:44:51;;;;;;;;;;;24.30;51.90;;;;;;5036800;28;20275;-62
2023/06/29 09:47:18;;;;;;;;;;;24.30;51.90;;;;;;5037456;28;19920;-62
2023/06/29 09:49:47;;;;;;;;;;;24.30;51.90;;;;;;5054717;28;19920;-62
2023/06/29 09:52:14;;;;;;;;;;;24.30;51.90;;;;;;5036666;28;20356;-62
2023/06/29 09:54:41;;;;;;;;;;;24.30;51.90;;;;;;5035126;28;19925;-63
2023/06/29 09:57:10;;;;;;;;;;;24.30;51.90;;;;;;5037364;28;19920;-62
2023/06/29 09:59:40;;;;;;;;;;;24.30;51.90;;;;;;5036407;28;20264;-63
2023/06/29 10:02:06;;;;;;;;;;;24.30;51.90;;;;;;5036655;28;19931;-62
2023/06/29 10:04:34;;;;;;;;;;;24.30;51.90;;;;;;5035288;28;19920;-62
2023/06/29 10:07:02;;;;;;;;;;;24.30;51.90;;;;;;5054422;28;19967;-62
2023/06/29 10:09:29;;;;;;;;;;;24.30;51.90;;;;;;5054295;28;19920;-62
2023/06/29 10:11:56;;;;;;;;;;;24.30;51.90;;;;;;5036918;28;19987;-62
2023/06/29 10:14:23;;;;;;;;;;;24.30;52.00;;;;;;5052275;28;19925;-62
2023/06/29 10:16:52;;;;;;;;;;;24.30;52.00;;;;;;5036469;28;20375;-62
2023/06/29 10:19:19;;;;;;;;;;;24.30;51.90;;;;;;5036175;28;19921;-63
2023/06/29 10:21:46;;;;;;;;;;;24.30;52.00;;;;;;5052309;28;19928;-61
2023/06/29 10:24:14;;;;;;;;;;;24.30;52.00;;;;;;5036620;28;19921;-62
2023/06/29 10:26:41;;;;;;;;;;;24.30;52.00;;;;;;5036808;28;19921;-62
2023/06/29 10:29:08;;;;;;;;;;;24.30;52.00;;;;;;5036852;28;19978;-62
2023/06/29 10:31:35;;;;;;;;;;;24.30;52.00;;;;;;5034737;28;19921;-62
2023/06/29 10:34:04;;;;;;;;;;;24.30;52.00;;;;;;5036624;28;19921;-62
2023/06/29 10:36:44;;;;;;;;;;;24.30;52.00;;;;;;5034707;28;19921;-62
2023/06/29 10:39:25;;;;;;;;;;;24.30;52.00;;;;;;5036139;28;19925;-62
2023/06/29 10:41:52;;;;;;;;;;;24.30;52.00;;;;;;5034912;28;20249;-62
2023/06/29 10:44:19;;;;;;;;;;;24.30;52.00;;;;;;5051957;28;19927;-62
2023/06/29 10:46:46;;;;;;;;;;;24.30;52.00;;;;;;5054150;28;19929;-62
2023/06/29 10:49:24;;;;;;;;;;;24.30;52.00;;;;;;5053111;28;20033;-62
2023/06/29 10:51:52;;;;;;;;;;;24.30;52.00;;;;;;5052797;28;20015;-62
2023/06/29 10:54:21;;;;;;;;;;;24.30;52.00;;;;;;5043888;28;19956;-62
2023/06/29 10:56:56;;;;;;;;;;;24.30;52.00;;;;;;5016709;28;20291;-62
2023/06/29 10:59:23;;;;;;;;;;;24.30;52.00;;;;;;5015999;28;20359;-63
2023/06/29 11:01:50;;;;;;;;;;;24.30;52.00;;;;;;5016136;28;19921;-63
2023/06/29 11:04:17;;;;;;;;;;;24.30;52.00;;;;;;5015598;28;19921;-63
2023/06/29 11:06:45;;;;;;;;;;;24.30;52.00;;;;;;5036654;28;19928;-63
2023/06/29 11:09:15;;;;;;;;;;;24.30;52.00;;;;;;5053601;28;19926;-63
2023/06/29 11:11:41;;;;;;;;;;;24.30;52.00;;;;;;5035165;28;19921;-62
2023/06/29 11:14:08;;;;;;;;;;;24.30;52.00;;;;;;5058049;28;19978;-62
2023/06/29 11:16:35;;;;;;;;;;;24.30;52.00;;;;;;5039262;28;19921;-62
2023/06/29 11:19:02;;;;;;;;;;;24.30;52.00;;;;;;5057709;28;19925;-62
2023/06/29 11:21:29;;;;;;;;;;;24.30;51.90;;;;;;5040199;28;19921;-62
2023/06/29 11:23:57;;;;;;;;;;;24.30;51.90;;;;;;5040158;28;19921;-62
2023/06/29 11:26:24;;;;;;;;;;;24.30;52.00;;;;;;5038093;28;19932;-62
2023/06/29 11:28:52;;;;;;;;;;;24.30;51.90;;;;;;5039398;28;19920;-63
2023/06/29 11:31:19;;;;;;;;;;;24.30;51.90;;;;;;5039749;28;19925;-62
2023/06/29 11:33:48;;;;;;;;;;;24.30;51.90;;;;;;5057354;28;20263;-62
2023/06/29 11:36:15;;;;;;;;;;;24.30;51.90;;;;;;5037485;28;19928;-62
2023/06/29 11:38:42;;;;;;;;;;;24.30;52.00;;;;;;5039197;28;19920;-63
2023/06/29 11:41:10;;;;;;;;;;;24.30;51.90;;;;;;5039033;28;19925;-62
2023/06/29 11:43:37;;;;;;;;;;;24.30;51.90;;;;;;5039263;28;19921;-63
2023/06/29 11:46:04;;;;;;;;;;;24.30;51.90;;;;;;5056950;28;19927;-62
2023/06/29 11:48:30;;;;;;;;;;;24.30;52.00;;;;;;5056949;28;19956;-62
2023/06/29 11:50:59;;;;;;;;;;;24.30;51.90;;;;;;5039651;28;19920;-62
2023/06/29 11:53:25;;;;;;;;;;;24.30;51.90;;;;;;5037688;28;19921;-62
2023/06/29 11:55:54;;;;;;;;;;;24.30;51.90;;;;;;5056849;28;19927;-62
2023/06/29 11:58:22;;;;;;;;;;;24.30;51.90;;;;;;5056721;28;20024;-62
2023/06/29 12:00:55;;;;;;;;;;;24.30;51.90;;;;;;5056565;28;19931;-62
2023/06/29 12:03:21;;;;;;;;;;;24.30;51.90;;;;;;5039564;28;19960;-62
2023/06/29 12:05:48;;;;;;;;;;;24.30;51.90;;;;;;5039226;28;19940;-62
2023/06/29 12:08:15;;;;;;;;;;;24.30;52.00;;;;;;5056310;28;19921;-63
2023/06/29 12:10:42;;;;;;;;;;;24.30;52.00;;;;;;5056461;28;19920;-62
2023/06/29 12:13:12;;;;;;;;;;;24.30;52.00;;;;;;5054893;28;19971;-63
2023/06/29 12:15:42;;;;;;;;;;;24.30;52.00;;;;;;5056636;28;19925;-62
2023/06/29 12:18:09;;;;;;;;;;;24.30;52.10;;;;;;5019085;28;19925;-62
2023/06/29 12:20:39;;;;;;;;;;;24.30;52.00;;;;;;5036731;28;19921;-62
2023/06/29 12:23:06;;;;;;;;;;;24.30;52.00;;;;;;5013407;28;20028;-62
2023/06/29 12:25:41;;;;;;;;;;;24.30;52.00;;;;;;5016998;28;19921;-62
2023/06/29 12:28:07;;;;;;;;;;;24.30;52.10;;;;;;5018602;28;19928;-62
2023/06/29 12:30:34;;;;;;;;;;;24.30;52.10;;;;;;5019132;28;19921;-63
2023/06/29 12:33:02;;;;;;;;;;;24.30;52.10;;;;;;5018112;28;20031;-63
2023/06/29 12:35:29;;;;;;;;;;;24.30;52.10;;;;;;5038155;28;20371;-61
2023/06/29 12:37:56;;;;;;;;;;;24.30;52.10;;;;;;5036511;28;19947;-63
2023/06/29 12:40:23;;;;;;;;;;;24.30;52.10;;;;;;5038809;28;19920;-63
2023/06/29 12:42:51;;;;;;;;;;;24.30;52.10;;;;;;5038785;28;19974;-63
2023/06/29 12:45:18;;;;;;;;;;;24.30;52.20;;;;;;5038116;28;19925;-63
2023/06/29 12:47:45;;;;;;;;;;;24.30;52.20;;;;;;5038873;28;19944;-63
2023/06/29 12:50:13;;;;;;;;;;;24.30;52.20;;;;;;5037968;28;19975;-62
2023/06/29 12:52:39;;;;;;;;;;;24.30;52.20;;;;;;5055813;28;19928;-61
2023/06/29 12:55:06;;;;;;;;;;;24.30;52.20;;;;;;5054058;28;19935;-61
2023/06/29 12:57:33;;;;;;;;;;;24.30;52.20;;;;;;5038234;28;19920;-62
2023/06/29 13:00:01;;;;;;;;;;;24.30;52.20;;;;;;5055346;28;19924;-62
2023/06/29 13:02:27;;;;;;;;;;;24.30;52.30;;;;;;5037508;28;19971;-62
2023/06/29 13:04:54;;;;;;;;;;;24.30;52.20;;;;;;5038233;28;20366;-62
2023/06/29 13:07:23;;;;;;;;;;;24.30;52.30;;;;;;5055969;28;19921;-62
2023/06/29 13:09:51;;;;;;;;;;;24.30;52.30;;;;;;5053724;28;19964;-62
2023/06/29 13:12:18;;;;;;;;;;;24.30;52.30;;;;;;5038597;28;19927;-62
2023/06/29 13:14:45;;;;;;;;;;;24.30;52.30;;;;;;5035804;28;19974;-62
2023/06/29 13:17:12;;;;;;;;;;;24.30;52.30;;;;;;5035895;28;19920;-61
2023/06/29 13:19:39;;;;;;;;;;;24.30;52.30;;;;;;5055586;28;19920;-61
2023/06/29 13:22:06;;;;;;;;;;;24.40;52.40;;;;;;5038096;28;19921;-62
2023/06/29 13:24:34;;;;;;;;;;;24.30;52.30;;;;;;5035781;28;19921;-62
2023/06/29 13:27:02;;;;;;;;;;;24.30;52.30;;;;;;5035892;28;19959;-62
2023/06/29 13:29:29;;;;;;;;;;;24.30;52.30;;;;;;5053422;28;19921;-62
2023/06/29 13:31:56;;;;;;;;;;;24.30;52.30;;;;;;5053522;28;19921;-62
2023/06/29 13:34:23;;;;;;;;;;;24.40;52.40;;;;;;5054612;28;19924;-62
2023/06/29 13:36:50;;;;;;;;;;;24.40;52.40;;;;;;5036168;28;19920;-62
2023/06/29 13:39:16;;;;;;;;;;;24.30;52.40;;;;;;5037930;28;19924;-64
2023/06/29 13:41:45;;;;;;;;;;;24.30;52.40;;;;;;5037347;28;19980;-63
2023/06/29 13:44:12;;;;;;;;;;;24.40;52.50;;;;;;5035418;28;19921;-63
2023/06/29 13:46:40;;;;;;;;;;;24.30;52.40;;;;;;5031304;28;19921;-57
2023/06/29 13:49:06;;;;;;;;;;;24.30;52.50;;;;;;5017280;28;19921;-62
2023/06/29 13:51:33;;;;;;;;;;;24.30;52.50;;;;;;5031605;28;19925;-62
2023/06/29 13:54:00;;;;;;;;;;;24.30;52.50;;;;;;5037343;28;19929;-63
2023/06/29 13:56:27;;;;;;;;;;;24.30;52.50;;;;;;5052428;28;19929;-62
2023/06/29 13:58:55;;;;;;;;;;;24.30;52.50;;;;;;5055136;28;19928;-63
2023/06/29 14:01:22;;;;;;;;;;;24.40;52.60;;;;;;5038168;28;19983;-56
2023/06/29 14:03:49;;;;;;;;;;;24.40;52.60;;;;;;5038892;28;19927;-64
2023/06/29 14:06:18;;;;;;;;;;;24.40;52.60;;;;;;5037925;28;19921;-63
2023/06/29 14:08:45;;;;;;;;;;;24.40;52.60;;;;;;5027022;28;19968;-63
2023/06/29 14:11:12;;;;;;;;;;;24.30;52.50;;;;;;5044310;28;19928;-63
2023/06/29 14:13:39;;;;;;;;;;;24.30;52.50;;;;;;5038967;28;19921;-63
2023/06/29 14:16:07;;;;;;;;;;;24.40;52.60;;;;;;5038582;28;19974;-62